Time;durP1;ratioP1;P1;durP2;ratioP2;P2;SDS_P1;SDS_P2;PMS_P1;PMS_P2;Temp;Humidity;BMP_temperature;BMP_pressure;BME280_temperature;BME280_humidity;BME280_pressure;Samples;Min_cycle;Max_cycle;Signal;HPM_P1;HPM_P2
2022/04/06 00:00:08;;;;;;;9.63;7.78;;;;;;;6.99;71.50;97390.25;5086765;28;20073;-71
2022/04/06 00:02:34;;;;;;;9.82;7.18;;;;;;;6.96;71.49;97381.88;5088578;28;20024;-71
2022/04/06 00:05:00;;;;;;;10.18;6.20;;;;;;;6.94;71.67;97379.44;5088102;28;20047;-71
2022/04/06 00:07:26;;;;;;;10.32;7.00;;;;;;;6.94;71.37;97378.66;5087483;28;20035;-71
2022/04/06 00:09:52;;;;;;;9.55;6.78;;;;;;;6.91;71.51;97380.06;5087809;28;20474;-71
2022/04/06 00:12:17;;;;;;;10.32;6.90;;;;;;;6.91;71.79;97379.25;5087872;28;20028;-71
2022/04/06 00:14:42;;;;;;;9.63;6.95;;;;;;;6.89;71.80;97362.38;5087835;28;20050;-71
2022/04/06 00:17:10;;;;;;;8.75;6.50;;;;;;;6.84;71.66;97361.34;5087973;28;20513;-71
2022/04/06 00:19:36;;;;;;;8.77;6.47;;;;;;;6.83;71.57;97362.47;5091604;28;20019;-71
2022/04/06 00:22:03;;;;;;;8.65;6.50;;;;;;;6.82;71.48;97369.00;5091271;28;20032;-71
2022/04/06 00:24:29;;;;;;;9.60;7.05;;;;;;;6.83;71.59;97381.53;5090511;28;20032;-70
2022/04/06 00:26:54;;;;;;;9.05;6.38;;;;;;;6.81;71.46;97381.03;5091317;28;20024;-71
2022/04/06 00:29:20;;;;;;;9.15;6.70;;;;;;;6.80;71.82;97382.13;5086958;28;20033;-70
2022/04/06 00:31:45;;;;;;;10.43;7.20;;;;;;;6.80;71.75;97384.06;5091111;28;20547;-71
2022/04/06 00:34:11;;;;;;;9.40;7.10;;;;;;;6.76;71.68;97383.03;5091142;28;20478;-71
2022/04/06 00:36:36;;;;;;;10.52;7.13;;;;;;;6.77;71.61;97376.47;5090920;28;20035;-71
2022/04/06 00:39:03;;;;;;;8.80;6.20;;;;;;;6.77;71.52;97371.81;5089730;28;20022;-71
2022/04/06 00:41:28;;;;;;;9.95;7.35;;;;;;;6.78;71.58;97381.63;5089004;28;20043;-70
2022/04/06 00:44:15;;;;;;;9.10;6.68;;;;;;;6.79;72.11;97372.34;5090958;28;20494;-71
2022/04/06 00:46:43;;;;;;;10.02;7.07;;;;;;;6.83;72.00;97384.25;5090420;28;20055;-71
2022/04/06 00:49:14;;;;;;;8.38;5.88;;;;;;;6.86;71.73;97380.16;5089874;28;20046;-70
2022/04/06 00:51:49;;;;;;;7.68;5.90;;;;;;;6.91;71.88;97377.34;5089796;28;20043;-71
2022/04/06 00:54:18;;;;;;;9.38;6.53;;;;;;;6.97;72.03;97389.75;5090587;28;20020;-71
2022/04/06 00:56:45;;;;;;;8.55;6.50;;;;;;;6.99;72.24;97378.56;5090640;28;20032;-71
2022/04/06 00:59:11;;;;;;;8.18;6.40;;;;;;;7.02;71.89;97380.69;5090265;28;20036;-70
2022/04/06 01:01:37;;;;;;;7.38;6.07;;;;;;;7.02;72.12;97377.97;5089313;28;20016;-71
2022/04/06 01:04:03;;;;;;;9.18;6.72;;;;;;;7.02;72.12;97380.69;5090650;28;20516;-71
2022/04/06 01:06:28;;;;;;;7.68;6.28;;;;;;;7.02;72.23;97383.41;5090683;28;20024;-71
2022/04/06 01:08:54;;;;;;;9.30;6.57;;;;;;;7.03;72.14;97387.75;5090721;28;20020;-70
2022/04/06 01:11:20;;;;;;;7.30;6.22;;;;;;;7.04;72.09;97388.56;5090926;28;20418;-71
2022/04/06 01:13:47;;;;;;;8.80;6.70;;;;;;;7.02;72.09;97386.13;5090839;28;20016;-70
2022/04/06 01:16:13;;;;;;;8.85;6.70;;;;;;;7.03;72.32;97389.66;5091025;28;20428;-70
2022/04/06 01:18:40;;;;;;;8.55;6.38;;;;;;;7.03;72.38;97385.03;5090866;28;20020;-71
2022/04/06 01:21:07;;;;;;;9.00;6.40;;;;;;;7.04;72.78;97392.09;5090767;28;20103;-70
2022/04/06 01:23:32;;;;;;;8.85;6.05;;;;;;;7.02;72.25;97394.31;5090525;28;20034;-71
2022/04/06 01:25:58;;;;;;;8.55;6.10;;;;;;;7.04;72.22;97389.38;5090968;28;20393;-71
2022/04/06 01:28:24;;;;;;;9.15;7.45;;;;;;;7.06;72.60;97387.16;5090951;28;20039;-71
2022/04/06 01:30:50;;;;;;;8.75;7.03;;;;;;;7.06;72.54;97378.97;5090801;28;20469;-71
2022/04/06 01:33:16;;;;;;;9.65;7.10;;;;;;;7.07;72.76;97390.69;5089960;28;20386;-71
2022/04/06 01:35:42;;;;;;;9.00;6.60;;;;;;;7.05;72.84;97387.44;5091406;28;20054;-70
2022/04/06 01:38:09;;;;;;;7.75;6.45;;;;;;;7.06;72.45;97373.53;5088139;28;20511;-71
2022/04/06 01:40:34;;;;;;;9.70;7.22;;;;;;;7.08;72.60;97376.78;5091185;28;20028;-71
2022/04/06 01:43:00;;;;;;;8.70;6.88;;;;;;;7.09;72.94;97375.66;5089942;28;20477;-71
2022/04/06 01:45:25;;;;;;;9.10;7.38;;;;;;;7.09;72.57;97375.66;5090027;28;20443;-71
2022/04/06 01:47:51;;;;;;;10.80;7.18;;;;;;;7.10;72.76;97371.00;5090130;28;20039;-71
2022/04/06 01:53:02;;;;;;;9.45;7.57;;;;;;;7.10;72.32;97376.47;5089823;28;20038;-71
2022/04/06 01:55:28;;;;;;;8.68;6.70;;;;;;;7.11;72.58;97378.91;5088910;28;20439;-71
2022/04/06 01:57:53;;;;;;;8.35;6.72;;;;;;;7.13;72.42;97368.47;5090001;28;20035;-70
2022/04/06 02:00:19;;;;;;;7.63;6.15;;;;;;;7.11;72.76;97361.72;5089985;28;20028;-70
2022/04/06 02:02:48;;;;;;;8.00;6.60;;;;;;;7.10;72.42;97371.00;5088288;28;20036;-70
2022/04/06 02:05:15;;;;;;;9.00;7.07;;;;;;;7.05;72.19;97366.47;5089778;28;20773;-71
2022/04/06 02:07:42;;;;;;;11.38;7.18;;;;;;;7.03;72.35;97362.41;5090036;28;20514;-71
2022/04/06 02:10:08;;;;;;;8.07;6.35;;;;;;;6.96;72.59;97363.59;5089800;28;20043;-71
2022/04/06 02:12:34;;;;;;;10.70;7.97;;;;;;;6.92;72.84;97370.78;5085908;28;20058;-71
2022/04/06 02:15:00;;;;;;;8.25;7.18;;;;;;;6.90;72.72;97372.16;5088513;28;20066;-71
2022/04/06 02:17:28;;;;;;;10.30;7.60;;;;;;;6.90;72.83;97367.53;5088499;28;20028;-71
2022/04/06 02:19:54;;;;;;;9.25;7.22;;;;;;;6.89;73.04;97371.38;5089051;28;20032;-71
2022/04/06 02:22:20;;;;;;;9.43;7.07;;;;;;;6.89;72.63;97373.28;5089454;28;20032;-71
2022/04/06 02:24:46;;;;;;;9.15;7.07;;;;;;;6.92;73.09;97375.41;5089524;28;20031;-71
2022/04/06 02:27:11;;;;;;;9.80;7.65;;;;;;;6.92;72.74;97380.84;5087269;28;20059;-70
2022/04/06 02:29:39;;;;;;;10.02;7.82;;;;;;;6.93;73.38;97379.75;5087935;28;20036;-70
2022/04/06 02:32:05;;;;;;;8.05;7.25;;;;;;;6.87;73.30;97373.59;5089123;28;20020;-70
2022/04/06 02:34:30;;;;;;;9.38;7.28;;;;;;;6.83;73.03;97388.91;5089284;28;20039;-71
2022/04/06 02:36:56;;;;;;;9.10;7.13;;;;;;;6.82;73.55;97390.81;5089117;28;20020;-71
2022/04/06 02:39:22;;;;;;;11.43;7.50;;;;;;;6.82;73.65;97399.00;5088699;28;20024;-71
2022/04/06 02:41:48;;;;;;;8.40;6.97;;;;;;;6.80;73.15;97386.78;5088546;28;20031;-70
2022/04/06 02:44:15;;;;;;;9.95;6.80;;;;;;;6.77;73.60;97393.63;5088169;28;20048;-70
2022/04/06 02:46:41;;;;;;;9.18;6.90;;;;;;;6.76;73.58;97386.56;5087608;28;20043;-71
2022/04/06 02:49:06;;;;;;;8.80;7.78;;;;;;;6.74;73.27;97390.69;5088950;28;20410;-70
2022/04/06 02:51:32;;;;;;;8.93;6.90;;;;;;;6.76;73.57;97392.00;5088870;28;20020;-70
2022/04/06 02:53:57;;;;;;;10.57;7.60;;;;;;;6.78;73.88;97391.72;5089172;28;20012;-70
2022/04/06 02:56:23;;;;;;;8.82;7.53;;;;;;;6.81;73.68;97388.41;5088615;28;20032;-70
2022/04/06 02:58:48;;;;;;;10.52;7.15;;;;;;;6.83;73.51;97391.63;5088537;28;20028;-70
2022/04/06 03:01:15;;;;;;;8.85;7.40;;;;;;;6.82;73.35;97387.28;5088782;28;20032;-70
2022/04/06 03:03:41;;;;;;;8.45;6.65;;;;;;;6.84;73.71;97391.31;5087519;28;20654;-71
2022/04/06 03:06:07;;;;;;;9.55;7.70;;;;;;;6.83;73.70;97384.25;5089049;28;20024;-70
2022/04/06 03:08:33;;;;;;;9.98;7.38;;;;;;;6.84;73.58;97387.81;5087076;28;20036;-71
2022/04/06 03:10:59;;;;;;;9.23;7.40;;;;;;;6.85;73.38;97394.88;5088983;28;20048;-70
2022/04/06 03:13:24;;;;;;;10.93;7.97;;;;;;;6.84;73.58;97399.50;5088897;28;20036;-70
2022/04/06 03:15:50;;;;;;;10.98;8.05;;;;;;;6.84;73.94;97399.50;5089814;28;20024;-70
2022/04/06 03:18:15;;;;;;;9.52;7.32;;;;;;;6.85;73.31;97405.78;5089869;28;20020;-71
2022/04/06 03:20:41;;;;;;;10.77;8.70;;;;;;;6.86;73.94;97407.41;5089645;28;20512;-70
2022/04/06 03:23:06;;;;;;;11.55;8.43;;;;;;;6.86;73.48;97399.22;5089901;28;20104;-70
2022/04/06 03:25:32;;;;;;;9.23;7.80;;;;;;;6.88;73.27;97405.19;5089482;28;20032;-70
2022/04/06 03:27:57;;;;;;;10.80;8.02;;;;;;;6.87;73.34;97391.84;5089544;28;20347;-71
2022/04/06 03:30:23;;;;;;;10.90;8.52;;;;;;;6.89;73.79;97393.19;5089244;28;20584;-70
2022/04/06 03:32:49;;;;;;;10.88;7.97;;;;;;;6.86;73.59;97399.22;5089699;28;20111;-71
2022/04/06 03:35:14;;;;;;;11.32;8.43;;;;;;;6.82;73.82;97393.53;5089410;28;20099;-70
2022/04/06 03:37:39;;;;;;;9.68;7.50;;;;;;;6.79;73.22;97393.34;5089392;28;20023;-71
2022/04/06 03:40:06;;;;;;;12.65;9.63;;;;;;;6.75;73.52;97393.09;5089528;28;20035;-70
2022/04/06 03:42:33;;;;;;;13.10;9.55;;;;;;;6.72;73.40;97396.47;5089110;28;20036;-71
2022/04/06 03:44:58;;;;;;;13.38;9.68;;;;;;;6.68;73.70;97396.22;5089155;28;20040;-70
2022/04/06 03:47:32;;;;;;;14.38;10.10;;;;;;;6.65;73.65;97399.53;5089307;28;20073;-70
2022/04/06 03:49:59;;;;;;;12.32;8.88;;;;;;;6.64;73.45;97403.38;5086346;28;20024;-71
2022/04/06 03:52:25;;;;;;;15.05;10.45;;;;;;;6.62;73.65;97393.88;5090081;28;20013;-71
2022/04/06 03:54:51;;;;;;;14.48;10.82;;;;;;;6.62;74.04;97402.84;5093309;28;20020;-71
2022/04/06 03:57:17;;;;;;;12.32;9.25;;;;;;;6.60;73.91;97390.66;5093279;28;20371;-71
2022/04/06 03:59:42;;;;;;;16.05;10.68;;;;;;;6.59;73.92;97399.91;5092999;28;20020;-71
2022/04/06 04:02:07;;;;;;;16.25;11.07;;;;;;;6.57;74.09;97405.66;5093426;28;20016;-71
2022/04/06 04:04:33;;;;;;;16.85;11.32;;;;;;;6.58;74.05;97401.03;5093217;28;20083;-70
2022/04/06 04:06:58;;;;;;;15.40;10.77;;;;;;;6.61;74.10;97405.88;5091847;28;20024;-70
2022/04/06 04:09:24;;;;;;;18.17;11.00;;;;;;;6.64;74.32;97410.75;5093032;28;20472;-71
2022/04/06 04:11:49;;;;;;;17.52;10.90;;;;;;;6.65;74.62;97409.63;5093133;28;20511;-70
2022/04/06 04:14:14;;;;;;;14.10;10.55;;;;;;;6.68;74.45;97411.78;5093121;28;20325;-71
2022/04/06 04:16:40;;;;;;;17.00;11.52;;;;;;;6.72;74.95;97404.63;5093159;28;20020;-71
2022/04/06 04:19:06;;;;;;;14.73;10.68;;;;;;;6.75;74.67;97405.94;5093666;28;20049;-70
2022/04/06 04:21:35;;;;;;;17.27;11.45;;;;;;;6.77;74.34;97404.53;5092700;28;20039;-70
2022/04/06 04:24:02;;;;;;;18.00;11.40;;;;;;;6.83;74.61;97416.97;5091345;28;20051;-70
2022/04/06 04:26:28;;;;;;;18.80;11.18;;;;;;;6.88;74.72;97405.19;5092117;28;20435;-70
2022/04/06 04:28:55;;;;;;;18.27;12.45;;;;;;;6.91;74.55;97406.50;5090851;28;20042;-70
2022/04/06 04:31:22;;;;;;;16.73;10.57;;;;;;;6.93;74.25;97410.53;5091398;28;20486;-69
2022/04/06 04:33:47;;;;;;;16.77;12.32;;;;;;;6.96;74.61;97409.94;5092677;28;20036;-70
2022/04/06 04:36:12;;;;;;;15.23;11.02;;;;;;;7.01;74.35;97406.31;5092632;28;20026;-69
2022/04/06 04:38:38;;;;;;;20.38;11.88;;;;;;;7.05;74.25;97423.72;5092628;28;20081;-69
2022/04/06 04:41:06;;;;;;;17.70;11.27;;;;;;;7.08;74.26;97417.66;5092593;28;20051;-69
2022/04/06 04:43:32;;;;;;;18.08;12.70;;;;;;;7.12;74.03;97418.69;5091910;28;20505;-69
2022/04/06 04:45:58;;;;;;;18.95;13.32;;;;;;;7.15;74.03;97412.59;5092125;28;20421;-69
2022/04/06 04:48:23;;;;;;;16.05;11.48;;;;;;;7.21;73.77;97417.97;5092599;28;20054;-69
2022/04/06 04:50:49;;;;;;;24.95;15.35;;;;;;;7.21;73.84;97413.34;5092412;28;20035;-69
2022/04/06 04:53:14;;;;;;;16.52;12.07;;;;;;;7.22;73.58;97416.88;5092312;28;20026;-70
2022/04/06 04:55:41;;;;;;;18.33;11.52;;;;;;;7.23;74.01;97426.66;5093254;28;20027;-69
2022/04/06 04:58:06;;;;;;;17.75;12.68;;;;;;;7.19;74.01;97417.47;5092763;28;20055;-69
2022/04/06 05:00:32;;;;;;;20.50;13.95;;;;;;;7.20;73.87;97424.53;5091938;28;20111;-69
2022/04/06 05:02:57;;;;;;;17.50;13.35;;;;;;;7.22;73.78;97433.22;5092417;28;20571;-69
2022/04/06 05:05:23;;;;;;;21.65;13.50;;;;;;;7.22;73.77;97428.59;5091051;28;20052;-69
2022/04/06 05:07:49;;;;;;;16.65;11.38;;;;;;;7.25;73.68;97428.00;5092377;28;20040;-69
2022/04/06 05:10:15;;;;;;;16.77;12.32;;;;;;;7.27;73.49;97431.25;5092033;28;20082;-69
2022/04/06 05:12:40;;;;;;;17.95;12.90;;;;;;;7.32;73.32;97432.25;5092033;28;20020;-70
2022/04/06 05:15:06;;;;;;;17.67;12.90;;;;;;;7.34;73.48;97433.56;5091794;28;20117;-69
2022/04/06 05:17:34;;;;;;;18.42;13.50;;;;;;;7.38;73.47;97441.94;5091585;28;20478;-69
2022/04/06 05:19:59;;;;;;;19.17;12.45;;;;;;;7.41;73.33;97447.63;5091765;28;20020;-70
2022/04/06 05:22:25;;;;;;;17.75;12.20;;;;;;;7.42;73.36;97442.97;5091787;28;20389;-69
2022/04/06 05:24:50;;;;;;;16.27;11.60;;;;;;;7.44;73.41;97451.66;5091882;28;20024;-70
2022/04/06 05:27:16;;;;;;;18.80;12.10;;;;;;;7.48;72.84;97463.59;5091750;28;20028;-70
2022/04/06 05:29:42;;;;;;;19.10;11.93;;;;;;;7.51;73.02;97462.19;5091926;28;20027;-70
2022/04/06 05:32:08;;;;;;;16.85;12.55;;;;;;;7.54;73.48;97462.41;5091452;28;20546;-69
2022/04/06 05:34:35;;;;;;;16.77;10.50;;;;;;;7.58;72.66;97463.41;5090863;28;20106;-70
2022/04/06 05:37:01;;;;;;;17.98;12.45;;;;;;;7.64;73.07;97460.59;5091239;28;20079;-69
2022/04/06 05:39:27;;;;;;;18.95;11.38;;;;;;;7.68;73.07;97458.88;5091512;28;20012;-69
2022/04/06 05:41:52;;;;;;;17.13;11.75;;;;;;;7.72;72.84;97466.16;5091311;28;20023;-70
2022/04/06 05:44:18;;;;;;;16.65;11.02;;;;;;;7.75;72.47;97464.72;5091423;28;20121;-70
2022/04/06 05:46:43;;;;;;;16.38;10.80;;;;;;;7.77;72.60;97462.50;5091133;28;20035;-69
2022/04/06 05:49:09;;;;;;;16.35;9.70;;;;;;;7.78;73.00;97466.84;5091250;28;20028;-70
2022/04/06 05:51:34;;;;;;;19.67;11.13;;;;;;;7.81;72.48;97468.19;5091121;28;20024;-69
2022/04/06 05:54:02;;;;;;;15.68;10.43;;;;;;;7.80;72.79;97475.56;5091302;28;20030;-70
2022/04/06 05:56:28;;;;;;;14.30;10.10;;;;;;;7.83;72.33;97482.34;5090839;28;20024;-70
2022/04/06 05:58:53;;;;;;;15.75;11.25;;;;;;;7.84;72.55;97483.97;5089788;28;20027;-70
2022/04/06 06:01:19;;;;;;;14.18;9.88;;;;;;;7.85;72.58;97471.94;5090816;28;20016;-70
2022/04/06 06:03:44;;;;;;;16.98;10.85;;;;;;;7.90;72.35;97482.75;5090929;28;20037;-70
2022/04/06 06:06:10;;;;;;;18.55;11.40;;;;;;;7.93;72.45;97489.53;5090737;28;20059;-70
2022/04/06 06:08:35;;;;;;;14.80;9.38;;;;;;;7.94;72.85;97491.97;5091030;28;20028;-69
2022/04/06 06:11:02;;;;;;;15.73;9.80;;;;;;;7.97;72.66;97494.06;5091142;28;20019;-70
2022/04/06 06:13:27;;;;;;;13.88;9.10;;;;;;;7.99;72.93;97493.78;5089727;28;20028;-70
2022/04/06 06:15:53;;;;;;;25.27;13.25;;;;;;;8.02;73.10;97496.69;5090452;28;20477;-70
2022/04/06 06:18:18;;;;;;;23.00;17.88;;;;;;;8.08;72.40;97493.88;5090528;28;20027;-70
2022/04/06 06:20:44;;;;;;;29.27;21.02;;;;;;;8.16;72.27;97493.19;5090896;28;20056;-70
2022/04/06 06:23:09;;;;;;;39.45;24.50;;;;;;;8.20;72.33;97491.44;5090733;28;20103;-70
2022/04/06 06:25:35;;;;;;;16.63;10.13;;;;;;;8.24;72.32;97500.66;5091900;28;20103;-70
2022/04/06 06:28:00;;;;;;;23.17;12.02;;;;;;;8.26;72.27;97501.16;5091892;28;20139;-69
2022/04/06 06:30:27;;;;;;;21.35;10.90;;;;;;;8.28;71.69;97493.47;5091115;28;20028;-69
2022/04/06 06:32:54;;;;;;;34.47;16.33;;;;;;;8.31;71.80;97489.31;5091684;28;20023;-69
2022/04/06 06:35:20;;;;;;;20.42;10.63;;;;;;;8.34;71.69;97497.72;5091717;28;20028;-70
2022/04/06 06:37:50;;;;;;;30.52;15.52;;;;;;;8.38;71.69;97494.34;5091527;28;20027;-69
2022/04/06 06:40:17;;;;;;;42.75;19.80;;;;;;;8.38;71.69;97489.72;5091424;28;20032;-69
2022/04/06 06:42:43;;;;;;;21.20;14.10;;;;;;;8.43;71.90;97497.81;5090054;28;20359;-69
2022/04/06 06:45:09;;;;;;;42.67;20.35;;;;;;;8.47;71.77;97507.00;5090995;28;20043;-69
2022/04/06 06:47:35;;;;;;;34.50;19.25;;;;;;;8.51;71.61;97509.97;5090756;28;20043;-69
2022/04/06 06:50:01;;;;;;;22.80;14.15;;;;;;;8.55;71.74;97512.91;5090140;28;20020;-69
2022/04/06 06:52:26;;;;;;;14.13;9.23;;;;;;;8.55;71.74;97500.03;5091188;28;20032;-69
2022/04/06 06:54:52;;;;;;;30.75;16.30;;;;;;;8.60;71.26;97501.84;5089680;28;20496;-69
2022/04/06 06:57:17;;;;;;;23.02;13.55;;;;;;;8.63;70.78;97503.97;5090890;28;20016;-68
2022/04/06 06:59:43;;;;;;;17.58;10.65;;;;;;;8.67;71.21;97498.72;5091540;28;20028;-68
2022/04/06 07:02:09;;;;;;;13.98;10.25;;;;;;;8.73;71.39;97500.22;5091053;28;20385;-68
2022/04/06 07:04:34;;;;;;;14.93;10.77;;;;;;;8.79;70.89;97498.97;5089794;28;20043;-69
2022/04/06 07:07:00;;;;;;;17.40;12.23;;;;;;;8.84;71.45;97495.31;5091114;28;20024;-69
2022/04/06 07:09:25;;;;;;;16.73;11.60;;;;;;;8.90;71.29;97499.56;5090535;28;20431;-69
2022/04/06 07:11:52;;;;;;;14.27;10.20;;;;;;;8.97;70.64;97482.72;5090828;28;20050;-69
2022/04/06 07:14:18;;;;;;;19.20;12.30;;;;;;;9.03;70.74;97493.22;5090193;28;20024;-68
2022/04/06 07:16:43;;;;;;;19.50;12.80;;;;;;;9.03;70.91;97482.28;5089562;28;20374;-69
2022/04/06 07:19:09;;;;;;;16.40;10.57;;;;;;;8.96;70.71;97492.84;5087114;28;20016;-68
2022/04/06 07:21:34;;;;;;;13.73;9.27;;;;;;;8.93;71.05;97479.81;5090417;28;20436;-70
2022/04/06 07:24:02;;;;;;;16.95;10.63;;;;;;;8.92;70.95;97487.19;5089937;28;20033;-69
2022/04/06 07:26:27;;;;;;;17.50;10.85;;;;;;;8.90;71.58;97499.56;5090515;28;20028;-70
2022/04/06 07:28:53;;;;;;;15.30;9.82;;;;;;;8.90;71.66;97508.56;5094318;28;20559;-71
2022/04/06 07:31:18;;;;;;;12.70;9.15;;;;;;;8.85;71.88;97508.66;5094564;28;20024;-72
2022/04/06 07:33:44;;;;;;;13.68;8.82;;;;;;;8.78;71.79;97513.75;5091720;28;20905;-71
2022/04/06 07:36:09;;;;;;;13.82;9.63;;;;;;;8.72;72.83;97517.72;5094792;28;20466;-70
2022/04/06 07:38:35;;;;;;;14.40;10.10;;;;;;;8.71;72.96;97527.84;5096740;28;20008;-74
2022/04/06 07:41:01;;;;;;;16.25;11.75;;;;;;;8.76;73.55;97524.22;5093189;28;20023;-71
2022/04/06 07:43:26;;;;;;;14.70;9.60;;;;;;;8.78;73.21;97524.69;5092416;28;20527;-71
2022/04/06 07:45:52;;;;;;;15.20;10.25;;;;;;;8.84;73.66;97511.72;5092239;28;20026;-75
2022/04/06 07:48:17;;;;;;;15.65;10.98;;;;;;;8.91;73.84;97517.59;5093425;28;20040;-72
2022/04/06 07:50:43;;;;;;;14.55;9.93;;;;;;;9.03;73.90;97519.78;5088631;28;20028;-72
2022/04/06 07:53:08;;;;;;;25.13;17.27;;;;;;;9.14;73.47;97517.59;5089185;28;20439;-72
2022/04/06 07:55:34;;;;;;;16.25;10.90;;;;;;;9.28;73.36;97517.53;5094061;28;20085;-71
2022/04/06 07:57:59;;;;;;;21.33;12.40;;;;;;;9.35;73.12;97513.25;5091776;28;20027;-70
2022/04/06 08:00:25;;;;;;;27.27;17.85;;;;;;;9.36;73.72;97516.78;5090249;28;20126;-71
2022/04/06 08:02:51;;;;;;;15.77;11.70;;;;;;;9.33;74.08;97517.41;5090873;28;20043;-70
2022/04/06 08:05:18;;;;;;;33.95;20.00;;;;;;;9.30;73.63;97513.38;5093397;28;20051;-71
2022/04/06 08:07:44;;;;;;;20.85;13.93;;;;;;;9.33;73.25;97510.03;5093477;28;20028;-70
2022/04/06 08:10:13;;;;;;;18.85;11.43;;;;;;;9.35;73.13;97506.97;5094011;28;20020;-69
2022/04/06 08:12:39;;;;;;;19.05;11.88;;;;;;;9.39;73.09;97516.19;5085597;28;20096;-72
2022/04/06 08:15:05;;;;;;;23.08;12.77;;;;;;;9.44;73.26;97516.06;5090916;28;20031;-71
2022/04/06 08:17:40;;;;;;;18.67;11.27;;;;;;;9.53;73.40;97511.44;5092827;28;20534;-71
2022/04/06 08:20:08;;;;;;;19.60;11.25;;;;;;;9.63;73.21;97515.03;5093675;28;20016;-73
2022/04/06 08:22:40;;;;;;;14.18;9.05;;;;;;;9.74;72.66;97518.31;5093858;28;20099;-74
2022/04/06 08:25:12;;;;;;;13.43;8.68;;;;;;;9.86;72.70;97513.06;5092393;28;20462;-72
2022/04/06 08:27:40;;;;;;;12.55;9.52;;;;;;;9.92;72.24;97513.75;5093764;28;20439;-73
2022/04/06 08:30:07;;;;;;;11.93;9.13;;;;;;;10.00;72.19;97525.84;5093183;28;20028;-73
2022/04/06 08:32:33;;;;;;;12.48;9.25;;;;;;;10.05;72.08;97526.50;5092778;28;20090;-73
2022/04/06 08:34:59;;;;;;;11.45;8.32;;;;;;;10.10;70.93;97512.69;5093307;28;20513;-72
2022/04/06 08:37:25;;;;;;;15.88;10.82;;;;;;;10.13;71.12;97525.75;5093361;28;20111;-74
2022/04/06 08:39:50;;;;;;;13.63;9.30;;;;;;;10.21;70.99;97523.34;5083690;28;20385;-74
2022/04/06 08:42:16;;;;;;;18.15;12.45;;;;;;;10.36;71.33;97533.09;5087877;28;20028;-74
2022/04/06 08:44:44;;;;;;;12.13;9.35;;;;;;;10.48;70.63;97525.09;5079542;28;20093;-74
2022/04/06 08:47:10;;;;;;;12.25;9.05;;;;;;;10.63;69.56;97531.25;5087156;28;20071;-74
2022/04/06 08:49:36;;;;;;;27.95;18.48;;;;;;;10.77;69.20;97523.69;5092883;28;20025;-72
2022/04/06 08:52:03;;;;;;;12.13;8.10;;;;;;;10.90;68.83;97519.19;5093086;28;20020;-71
2022/04/06 08:54:29;;;;;;;11.55;8.38;;;;;;;11.02;68.40;97521.28;5092284;28;20039;-71
2022/04/06 08:57:05;;;;;;;12.73;8.65;;;;;;;11.16;67.74;97518.41;5093573;28;20024;-73
2022/04/06 08:59:31;;;;;;;12.45;8.63;;;;;;;11.23;67.99;97529.69;5095306;28;20561;-72
2022/04/06 09:01:57;;;;;;;10.65;7.88;;;;;;;11.30;67.00;97520.97;5087205;28;20381;-73
2022/04/06 09:04:24;;;;;;;11.20;8.07;;;;;;;11.37;66.39;97514.97;5092990;28;20049;-73
2022/04/06 09:06:49;;;;;;;14.52;9.45;;;;;;;11.42;66.26;97515.59;5093201;28;20031;-74
2022/04/06 09:09:24;;;;;;;10.60;6.80;;;;;;;11.43;63.98;97513.69;5091999;28;20382;-70
2022/04/06 09:11:50;;;;;;;8.98;6.60;;;;;;;11.39;64.92;97521.78;5090153;28;20433;-70
2022/04/06 09:14:15;;;;;;;9.13;6.82;;;;;;;11.35;64.22;97518.06;5092811;28;20024;-69
2022/04/06 09:16:40;;;;;;;8.70;6.88;;;;;;;11.29;65.17;97509.16;5092691;28;20363;-70
2022/04/06 09:19:13;;;;;;;8.02;6.38;;;;;;;11.24;65.63;97514.81;5093423;28;20035;-69
2022/04/06 09:21:44;;;;;;;8.02;6.20;;;;;;;11.16;65.21;97519.19;5091756;28;20024;-70
2022/04/06 09:24:16;;;;;;;7.22;6.10;;;;;;;10.99;64.69;97517.25;5092357;28;20481;-71
2022/04/06 09:26:42;;;;;;;6.93;6.22;;;;;;;10.91;64.93;97520.00;5092798;28;20020;-71
2022/04/06 09:29:12;;;;;;;7.47;5.97;;;;;;;10.78;65.07;97514.34;5091132;28;20036;-68
2022/04/06 09:31:40;;;;;;;9.93;6.93;;;;;;;10.72;65.50;97521.09;5090957;28;20162;-70
2022/04/06 09:34:09;;;;;;;11.10;7.53;;;;;;;10.65;65.24;97523.50;5094599;28;20111;-70
2022/04/06 09:36:38;;;;;;;8.27;6.57;;;;;;;10.63;65.32;97515.59;5092546;28;20032;-69
2022/04/06 09:39:05;;;;;;;7.17;6.07;;;;;;;10.68;65.05;97525.59;5092446;28;20024;-70
2022/04/06 09:41:32;;;;;;;7.78;6.28;;;;;;;10.74;64.94;97518.06;5092365;28;20074;-72
2022/04/06 09:47:38;;;;;;;8.45;6.90;;;;;;;10.80;65.10;97519.50;5087331;28;20048;-72
2022/04/06 09:50:16;;;;;;;10.55;7.80;;;;;;;11.30;66.12;97501.75;5085971;28;20081;-70
2022/04/06 09:52:43;;;;;;;13.73;7.43;;;;;;;11.52;65.06;97492.53;5087693;28;20078;-70
2022/04/06 09:55:11;;;;;;;19.00;9.02;;;;;;;11.68;63.85;97497.47;5091621;28;20103;-68
2022/04/06 09:57:42;;;;;;;8.35;6.35;;;;;;;11.76;62.98;97496.66;5089030;28;20524;-69
2022/04/06 10:00:10;;;;;;;8.30;5.85;;;;;;;11.77;63.01;97496.34;5087446;28;20045;-69
2022/04/06 10:02:36;;;;;;;7.85;5.70;;;;;;;11.81;63.42;97492.94;5091358;28;20464;-70
2022/04/06 10:05:03;;;;;;;8.55;6.03;;;;;;;11.89;62.86;97489.34;5091655;28;20107;-68
2022/04/06 10:07:29;;;;;;;7.45;5.70;;;;;;;11.90;62.18;97490.94;5091834;28;20358;-69
2022/04/06 10:09:56;;;;;;;8.15;5.45;;;;;;;11.82;60.70;97487.09;5088946;28;20115;-69
2022/04/06 10:12:23;;;;;;;9.93;6.70;;;;;;;11.73;61.67;97486.31;5089143;28;20063;-70
2022/04/06 10:14:50;;;;;;;8.77;6.13;;;;;;;11.71;62.71;97488.59;5084291;28;20024;-69
2022/04/06 10:17:17;;;;;;;7.60;5.40;;;;;;;11.68;62.37;97490.06;5089310;28;20450;-68
2022/04/06 10:19:48;;;;;;;7.13;5.32;;;;;;;11.67;63.23;97488.44;5090332;28;20044;-69
2022/04/06 10:22:23;;;;;;;9.85;6.68;;;;;;;11.67;62.57;97493.13;5088040;28;20024;-67
2022/04/06 10:25:01;;;;;;;7.82;5.40;;;;;;;11.65;62.54;97492.63;5088288;28;20391;-68
2022/04/06 10:27:35;;;;;;;7.40;5.63;;;;;;;11.66;62.05;97488.75;5089022;28;20032;-68
2022/04/06 10:30:23;;;;;;;7.75;5.05;;;;;;;11.67;62.80;97488.44;5087397;28;20509;-69
2022/04/06 10:32:51;;;;;;;9.10;6.40;;;;;;;11.73;62.41;97489.06;5092111;28;20032;-69
2022/04/06 10:35:19;;;;;;;7.47;5.65;;;;;;;11.73;62.78;97469.84;5090094;28;20536;-68
2022/04/06 10:37:49;;;;;;;7.55;5.95;;;;;;;11.77;62.44;97471.63;5090016;28;20024;-69
2022/04/06 10:40:15;;;;;;;12.88;7.13;;;;;;;11.86;62.50;97479.81;5088472;28;20031;-69
2022/04/06 10:42:42;;;;;;;12.18;7.50;;;;;;;11.97;62.41;97474.75;5086912;28;20028;-69
2022/04/06 10:45:26;;;;;;;14.10;9.43;;;;;;;12.07;61.86;97470.84;5089353;28;20067;-68
2022/04/06 10:48:10;;;;;;;7.78;5.40;;;;;;;12.11;60.82;97469.06;5087943;28;20055;-70
2022/04/06 10:50:37;;;;;;;13.05;7.55;;;;;;;12.09;61.06;97471.34;5089174;28;20051;-69
2022/04/06 10:53:18;;;;;;;13.57;8.52;;;;;;;12.12;61.26;97470.69;5090965;28;20024;-69
2022/04/06 10:56:03;;;;;;;29.42;17.88;;;;;;;12.18;61.13;97463.84;5090279;28;20099;-69
2022/04/06 10:58:57;;;;;;;24.95;21.48;;;;;;;12.19;60.92;97470.19;5088540;28;20040;-68
2022/04/06 11:01:30;;;;;;;23.52;19.67;;;;;;;12.18;60.50;97468.56;5093805;28;20393;-68
2022/04/06 11:03:56;;;;;;;20.98;16.38;;;;;;;12.20;61.00;97460.78;5089981;28;20522;-69
2022/04/06 11:06:44;;;;;;;48.65;31.33;;;;;;;12.18;60.30;97463.84;5090246;28;20032;-67
2022/04/06 11:12:23;;;;;;;18.88;11.20;;;;;;;11.94;60.17;97458.13;5087774;28;20058;-68
2022/04/06 11:14:52;;;;;;;25.30;18.10;;;;;;;11.89;61.10;97457.19;5088676;28;20016;-69
2022/04/06 11:17:48;;;;;;;12.68;8.07;;;;;;;11.91;60.84;97456.84;5087732;28;20637;-68
2022/04/06 11:20:21;;;;;;;26.52;16.48;;;;;;;12.08;61.38;97458.72;5094785;28;20439;-68
2022/04/06 11:22:46;;;;;;;12.75;7.40;;;;;;;12.25;60.62;97454.28;5088700;28;20081;-68
2022/04/06 11:25:14;;;;;;;10.57;7.40;;;;;;;12.32;60.84;97460.88;5091054;28;20032;-70
2022/04/06 11:27:42;;;;;;;11.00;6.15;;;;;;;12.38;59.24;97453.25;5091344;28;20036;-67
2022/04/06 11:30:15;;;;;;;14.10;8.38;;;;;;;12.33;60.08;97459.72;5089402;28;20031;-68
2022/04/06 11:32:43;;;;;;;11.68;6.63;;;;;;;12.29;59.33;97455.25;5087844;28;20031;-68
2022/04/06 11:35:35;;;;;;;10.27;6.30;;;;;;;12.33;59.84;97440.47;5088820;28;20032;-68
2022/04/06 11:38:03;;;;;;;16.65;9.35;;;;;;;12.50;58.93;97452.53;5088859;28;20035;-67
2022/04/06 11:40:30;;;;;;;17.97;9.90;;;;;;;12.69;58.81;97441.06;5089553;28;20504;-69